createdAt,value
2018-05-23T00:01:01.814Z,7.00
2018-05-23T00:03:30.025Z,6.97
2018-05-23T00:05:57.478Z,7.03
2018-05-23T00:08:24.926Z,6.40
2018-05-23T00:10:52.374Z,7.20
2018-05-23T00:13:19.827Z,7.07
2018-05-23T00:15:47.266Z,6.73
2018-05-23T00:18:15.491Z,6.97
2018-05-23T00:20:42.914Z,6.40
2018-05-23T00:23:10.367Z,7.07
2018-05-23T00:25:37.819Z,6.63
2018-05-23T00:28:06.032Z,6.87
2018-05-23T00:30:33.482Z,6.30
2018-05-23T00:33:00.930Z,6.60
2018-05-23T00:35:28.370Z,6.83
2018-05-23T00:37:56.573Z,7.37
2018-05-23T00:40:24.027Z,7.50
2018-05-23T00:42:51.481Z,7.37
2018-05-23T00:45:18.923Z,6.77
2018-05-23T00:47:46.387Z,7.20
2018-05-23T00:50:13.896Z,7.53
2018-05-23T00:52:42.039Z,7.47
2018-05-23T00:55:22.169Z,6.77
2018-05-23T00:57:49.630Z,7.87
2018-05-23T01:00:17.079Z,7.13
2018-05-23T01:02:45.294Z,7.37
2018-05-23T01:05:12.731Z,7.70
2018-05-23T01:07:40.198Z,7.30
2018-05-23T01:10:07.637Z,7.20
2018-05-23T01:12:35.094Z,7.07
2018-05-23T01:15:02.537Z,8.10
2018-05-23T01:17:30.751Z,7.20
2018-05-23T01:19:58.210Z,7.63
2018-05-23T01:22:25.662Z,6.67
2018-05-23T01:24:53.906Z,7.63
2018-05-23T01:27:22.116Z,7.10
2018-05-23T01:29:49.570Z,6.40
2018-05-23T01:32:17.018Z,6.70
2018-05-23T01:34:44.458Z,6.83
2018-05-23T01:37:12.665Z,6.43
2018-05-23T01:39:40.110Z,7.07
2018-05-23T01:42:07.562Z,6.60
2018-05-23T01:44:35.006Z,7.23
2018-05-23T01:47:02.467Z,7.47
2018-05-23T01:49:29.922Z,7.57
2018-05-23T01:51:57.374Z,7.10
2018-05-23T01:54:25.587Z,7.40
2018-05-23T01:56:53.794Z,7.10
2018-05-23T01:59:21.234Z,7.40
2018-05-23T02:01:48.670Z,8.17
2018-05-23T02:04:16.138Z,6.97
2018-05-23T02:06:43.570Z,8.13
2018-05-23T02:09:11.027Z,7.33
2018-05-23T02:11:38.480Z,7.87
2018-05-23T02:14:05.942Z,8.00
2018-05-23T02:16:33.363Z,7.17
2018-05-23T02:19:00.820Z,8.27
2018-05-23T02:21:29.206Z,9.30
2018-05-23T02:23:57.430Z,8.63
2018-05-23T02:26:24.874Z,8.37
2018-05-23T02:28:52.323Z,8.23
2018-05-23T02:31:19.758Z,7.70
2018-05-23T02:33:47.982Z,8.97
2018-05-23T02:36:15.421Z,8.40
2018-05-23T02:38:42.875Z,8.47
2018-05-23T02:41:10.758Z,7.37
2018-05-23T02:43:38.214Z,7.40
2018-05-23T02:46:05.677Z,7.70
2018-05-23T02:48:33.130Z,9.10
2018-05-23T02:51:00.581Z,8.43
2018-05-23T02:53:28.005Z,8.77
2018-05-23T02:55:56.214Z,8.70
2018-05-23T02:58:23.656Z,8.50
2018-05-23T03:00:51.115Z,8.60
2018-05-23T03:03:18.555Z,8.90
2018-05-23T03:05:46.787Z,8.93
2018-05-23T03:08:14.225Z,10.00
2018-05-23T03:10:41.697Z,10.87
2018-05-23T03:13:09.145Z,10.43
2018-05-23T03:15:37.364Z,11.00
2018-05-23T03:18:04.821Z,10.97
2018-05-23T03:20:32.266Z,10.97
2018-05-23T03:22:59.711Z,10.17
2018-05-23T03:25:27.166Z,10.53
2018-05-23T03:27:54.621Z,12.33
2018-05-23T03:30:22.069Z,12.53
2018-05-23T03:32:49.513Z,13.30
2018-05-23T03:35:16.974Z,14.23
2018-05-23T03:37:44.418Z,13.93
2018-05-23T03:40:11.881Z,13.80
2018-05-23T03:42:39.305Z,14.00
2018-05-23T03:45:07.518Z,14.43
2018-05-23T03:47:34.966Z,14.70
2018-05-23T03:50:02.429Z,15.47
2018-05-23T03:52:29.894Z,15.90
2018-05-23T03:54:57.349Z,15.47
2018-05-23T03:57:24.807Z,15.23
2018-05-23T04:00:03.966Z,16.33
2018-05-23T04:02:43.290Z,16.03
2018-05-23T04:05:22.754Z,15.47
2018-05-23T04:07:50.202Z,14.83
2018-05-23T04:10:17.670Z,16.67
2018-05-23T04:12:45.113Z,15.97
2018-05-23T04:15:12.563Z,17.40
2018-05-23T04:17:40.022Z,17.07
2018-05-23T04:20:07.470Z,17.13
2018-05-23T04:22:34.927Z,17.30
2018-05-23T04:25:02.372Z,17.10
2018-05-23T04:27:29.834Z,17.07
2018-05-23T04:29:57.274Z,16.83
2018-05-23T04:32:24.730Z,17.83
2018-05-23T04:34:52.183Z,17.43
2018-05-23T04:37:20.403Z,18.63
2018-05-23T04:39:47.858Z,17.03
2018-05-23T04:42:15.317Z,18.17
2018-05-23T04:44:42.764Z,17.77
2018-05-23T04:47:10.222Z,17.00
2018-05-23T04:49:37.670Z,17.73
2018-05-23T04:52:05.135Z,18.53
2018-05-23T04:54:32.663Z,18.27
2018-05-23T04:57:00.049Z,17.83
2018-05-23T04:59:27.503Z,18.73
2018-05-23T05:01:54.961Z,18.27
2018-05-23T05:04:22.409Z,18.40
2018-05-23T05:06:49.857Z,18.10
2018-05-23T05:09:17.304Z,19.17
2018-05-23T05:11:45.527Z,18.73
2018-05-23T05:14:13.074Z,18.50
2018-05-23T05:16:41.282Z,18.40
2018-05-23T05:19:08.734Z,17.97
2018-05-23T05:21:36.194Z,19.03
2018-05-23T05:24:03.637Z,18.73
2018-05-23T05:26:31.097Z,19.67
2018-05-23T05:28:58.546Z,18.80
2018-05-23T05:31:26.005Z,19.30
2018-05-23T05:33:53.475Z,18.63
2018-05-23T05:36:20.930Z,18.70
2018-05-23T05:38:48.476Z,18.80
2018-05-23T05:41:15.834Z,18.70
2018-05-23T05:43:43.289Z,18.60
2018-05-23T05:46:10.742Z,18.37
2018-05-23T05:48:38.194Z,18.83
2018-05-23T05:51:05.646Z,19.50
2018-05-23T05:53:33.133Z,19.43
2018-05-23T05:56:00.570Z,19.33
2018-05-23T05:58:28.037Z,18.00
2018-05-23T06:00:55.486Z,20.10
2018-05-23T06:03:22.943Z,20.67
2018-05-23T06:05:50.386Z,21.60
2018-05-23T06:08:17.858Z,19.13
2018-05-23T06:10:45.309Z,20.07
2018-05-23T06:13:12.782Z,18.03
2018-05-23T06:15:40.231Z,18.60
2018-05-23T06:18:07.683Z,18.83
2018-05-23T06:20:35.249Z,19.13
2018-05-23T06:23:02.690Z,20.10
2018-05-23T06:25:30.138Z,20.60
2018-05-23T06:27:57.598Z,21.60
2018-05-23T06:30:25.138Z,20.17
2018-05-23T06:32:53.269Z,19.50
2018-05-23T06:35:20.731Z,21.10
2018-05-23T06:40:25.725Z,22.27
2018-05-23T06:43:00.549Z,22.20
2018-05-23T06:45:34.979Z,22.17
2018-05-23T06:48:02.690Z,21.37
2018-05-23T06:50:30.140Z,22.60
2018-05-23T06:52:57.639Z,23.53
2018-05-23T06:55:25.077Z,23.97
2018-05-23T06:57:52.553Z,23.07
2018-05-23T07:00:19.995Z,23.83
2018-05-23T07:02:47.458Z,24.33
2018-05-23T07:05:14.901Z,23.30
2018-05-23T07:07:42.357Z,23.07
2018-05-23T07:10:09.803Z,24.73
2018-05-23T07:12:37.249Z,22.37
2018-05-23T07:15:04.734Z,23.87
2018-05-23T07:17:32.182Z,24.50
2018-05-23T07:19:59.634Z,24.43
2018-05-23T07:22:27.089Z,24.50
2018-05-23T07:24:54.554Z,27.77
2018-05-23T07:27:21.989Z,26.37
2018-05-23T07:29:49.451Z,26.57
2018-05-23T07:32:16.889Z,28.63
2018-05-23T07:34:44.343Z,29.07
2018-05-23T07:37:11.790Z,29.63
2018-05-23T07:39:40.010Z,28.50
2018-05-23T07:42:07.485Z,27.83
2018-05-23T07:44:35.735Z,27.10
2018-05-23T07:47:03.181Z,27.70
2018-05-23T07:49:30.656Z,26.40
2018-05-23T07:51:58.097Z,27.00
2018-05-23T07:54:25.564Z,26.07
2018-05-23T07:56:53.003Z,23.57
2018-05-23T07:59:20.452Z,25.40
2018-05-23T08:01:48.662Z,24.10
2018-05-23T08:04:16.110Z,19.60
2018-05-23T08:06:43.549Z,23.73
2018-05-23T08:09:11.006Z,21.67
2018-05-23T08:11:38.458Z,21.17
2018-05-23T08:14:06.688Z,20.47
2018-05-23T08:16:34.946Z,19.73
2018-05-23T08:19:02.406Z,17.20
2018-05-23T08:21:29.870Z,17.97
2018-05-23T08:23:57.345Z,15.50
2018-05-23T08:26:24.796Z,15.13
2018-05-23T08:28:52.254Z,13.87
2018-05-23T08:31:19.693Z,13.83
2018-05-23T08:33:47.167Z,13.63
2018-05-23T08:36:14.603Z,13.03
2018-05-23T08:38:42.057Z,10.87
2018-05-23T08:41:09.515Z,11.20
2018-05-23T08:43:36.961Z,11.60
2018-05-23T08:46:04.457Z,11.00
2018-05-23T08:48:31.866Z,10.97
2018-05-23T08:50:59.331Z,11.13
2018-05-23T08:53:26.781Z,10.20
2018-05-23T08:55:54.995Z,10.30
2018-05-23T08:58:22.441Z,10.77
2018-05-23T09:00:49.908Z,9.40
2018-05-23T09:03:17.358Z,9.80
2018-05-23T09:05:44.813Z,10.50
2018-05-23T09:08:12.262Z,10.07
2018-05-23T09:10:39.714Z,10.30
2018-05-23T09:13:07.158Z,9.87
2018-05-23T09:15:35.093Z,8.80
2018-05-23T09:18:02.555Z,8.97
2018-05-23T09:20:30.000Z,8.40
2018-05-23T09:22:57.437Z,7.80
2018-05-23T09:25:24.938Z,7.47
2018-05-23T09:27:52.384Z,7.30
2018-05-23T09:30:19.834Z,7.43
2018-05-23T09:32:47.291Z,7.87
2018-05-23T09:35:14.741Z,7.20
2018-05-23T09:37:42.173Z,6.47
2018-05-23T09:40:09.626Z,6.27
2018-05-23T09:42:37.083Z,6.77
2018-05-23T09:45:04.619Z,7.57
2018-05-23T09:47:31.969Z,7.27
2018-05-23T09:49:59.427Z,6.67
2018-05-23T09:52:27.635Z,7.07
2018-05-23T09:54:55.179Z,6.80
2018-05-23T09:57:22.549Z,7.10
2018-05-23T09:59:50.762Z,8.40
2018-05-23T10:02:18.463Z,7.63
2018-05-23T10:04:46.671Z,8.67
2018-05-23T10:07:14.118Z,7.93
2018-05-23T10:09:41.578Z,7.47
2018-05-23T10:12:09.046Z,7.33
2018-05-23T10:14:36.493Z,6.93
2018-05-23T10:17:03.947Z,8.47
2018-05-23T10:19:31.402Z,9.07
2018-05-23T10:21:58.874Z,8.33
2018-05-23T10:24:26.354Z,8.30
2018-05-23T10:26:53.801Z,7.70
2018-05-23T10:29:21.246Z,7.97
2018-05-23T10:31:49.522Z,6.53
2018-05-23T10:34:16.981Z,7.00
2018-05-23T10:36:44.424Z,7.67
2018-05-23T10:39:11.917Z,7.20
2018-05-23T10:41:39.343Z,7.10
2018-05-23T10:44:06.778Z,6.27
2018-05-23T10:46:34.440Z,6.27
2018-05-23T10:49:01.896Z,6.47
2018-05-23T10:51:29.351Z,5.83
2018-05-23T10:53:57.560Z,6.33
2018-05-23T10:56:24.998Z,6.53
2018-05-23T10:58:52.433Z,6.23
2018-05-23T11:01:20.658Z,7.17
2018-05-23T11:03:48.127Z,6.17
2018-05-23T11:06:15.589Z,5.87
2018-05-23T11:08:43.030Z,6.23
2018-05-23T11:11:10.511Z,6.87
2018-05-23T11:13:37.942Z,5.87
2018-05-23T11:16:05.406Z,5.90
2018-05-23T11:18:32.843Z,6.63
2018-05-23T11:21:01.065Z,5.47
2018-05-23T11:23:28.529Z,5.80
2018-05-23T11:25:55.975Z,5.87
2018-05-23T11:28:23.441Z,6.00
2018-05-23T11:30:50.871Z,5.90
2018-05-23T11:33:18.314Z,6.50
2018-05-23T11:35:45.770Z,6.23
2018-05-23T11:38:13.222Z,5.90
2018-05-23T11:40:40.661Z,6.10
2018-05-23T11:43:08.122Z,5.60
2018-05-23T11:45:35.564Z,5.07
2018-05-23T11:48:03.796Z,6.50
2018-05-23T11:50:31.238Z,7.77
2018-05-23T11:52:59.405Z,8.20
2018-05-23T11:55:26.861Z,8.53
2018-05-23T11:57:54.300Z,8.37
2018-05-23T12:00:21.740Z,8.97
2018-05-23T12:02:49.954Z,8.80
2018-05-23T12:05:17.413Z,8.57
2018-05-23T12:07:44.864Z,8.20
2018-05-23T12:10:12.307Z,7.73
2018-05-23T12:12:39.771Z,7.87
2018-05-23T12:15:07.972Z,7.50
2018-05-23T12:17:35.428Z,7.17
2018-05-23T12:20:02.909Z,7.03
2018-05-23T12:22:30.362Z,6.73
2018-05-23T12:24:57.801Z,6.20
2018-05-23T12:27:25.253Z,6.80
2018-05-23T12:29:52.698Z,6.63
2018-05-23T12:32:20.910Z,6.80
2018-05-23T12:34:49.673Z,6.30
2018-05-23T12:37:17.131Z,6.90
2018-05-23T12:39:44.582Z,7.73
2018-05-23T12:42:12.036Z,7.37
2018-05-23T12:44:39.478Z,6.53
2018-05-23T12:47:06.931Z,8.17
2018-05-23T12:49:34.384Z,6.77
2018-05-23T12:52:02.602Z,6.53
2018-05-23T12:54:30.057Z,7.80
2018-05-23T12:56:57.506Z,7.60
2018-05-23T12:59:24.967Z,8.10
2018-05-23T13:01:52.412Z,8.93
2018-05-23T13:04:19.883Z,8.37
2018-05-23T13:06:47.328Z,8.13
2018-05-23T13:09:14.786Z,7.70
2018-05-23T13:11:42.244Z,7.77
2018-05-23T13:14:09.678Z,7.20
2018-05-23T13:16:37.889Z,7.00
2018-05-23T13:19:05.343Z,6.57
2018-05-23T13:21:33.545Z,6.77
2018-05-23T13:24:00.986Z,7.03
2018-05-23T13:26:28.434Z,6.13
2018-05-23T13:28:55.889Z,7.00
2018-05-23T13:31:23.339Z,7.27
2018-05-23T13:33:50.803Z,7.27
2018-05-23T13:36:18.559Z,7.13
2018-05-23T13:38:46.028Z,7.00
2018-05-23T13:41:13.479Z,7.00
2018-05-23T13:43:40.941Z,6.60
2018-05-23T13:46:08.374Z,6.83
2018-05-23T13:48:35.821Z,7.00
2018-05-23T13:51:04.055Z,6.57
2018-05-23T13:53:31.521Z,7.40
2018-05-23T13:55:58.982Z,6.73
2018-05-23T13:58:26.459Z,7.57
2018-05-23T14:00:53.869Z,6.47
2018-05-23T14:03:21.329Z,6.50
2018-05-23T14:05:48.778Z,7.67
2018-05-23T14:08:16.238Z,6.93
2018-05-23T14:10:43.674Z,7.27
2018-05-23T14:13:11.126Z,8.03
2018-05-23T14:15:38.581Z,8.30
2018-05-23T14:18:06.782Z,7.37
2018-05-23T14:20:34.240Z,7.80
2018-05-23T14:23:02.511Z,7.23
2018-05-23T14:25:29.905Z,7.67
2018-05-23T14:27:57.346Z,7.00
2018-05-23T14:30:24.808Z,7.33
2018-05-23T14:32:52.250Z,7.90
2018-05-23T14:35:19.701Z,7.90
2018-05-23T14:37:47.786Z,7.77
2018-05-23T14:40:15.245Z,7.77
2018-05-23T14:42:42.686Z,7.97
2018-05-23T14:45:10.134Z,7.80
2018-05-23T14:47:37.595Z,8.37
2018-05-23T14:50:05.077Z,7.30
2018-05-23T14:52:32.511Z,8.33
2018-05-23T14:54:59.972Z,9.17
2018-05-23T14:57:27.407Z,8.77
2018-05-23T14:59:55.622Z,8.53
2018-05-23T15:02:23.588Z,7.40
2018-05-23T15:04:51.036Z,7.30
2018-05-23T15:07:18.477Z,6.20
2018-05-23T15:09:45.930Z,6.67
2018-05-23T15:12:13.379Z,5.97
2018-05-23T15:14:41.598Z,6.00
2018-05-23T15:17:09.043Z,6.10
2018-05-23T15:19:36.488Z,4.93
2018-05-23T15:22:03.929Z,5.00
2018-05-23T15:24:32.138Z,4.90
2018-05-23T15:26:59.588Z,4.67
2018-05-23T15:29:27.034Z,5.23
2018-05-23T15:31:54.477Z,7.17
2018-05-23T15:34:22.702Z,5.60
2018-05-23T15:36:50.145Z,5.07
2018-05-23T15:39:17.599Z,5.00
2018-05-23T15:41:45.052Z,4.20
2018-05-23T15:44:12.499Z,4.93
2018-05-23T15:46:39.937Z,4.23
2018-05-23T15:49:08.147Z,4.20
2018-05-23T15:51:36.358Z,4.10
2018-05-23T15:54:03.794Z,3.30
2018-05-23T15:56:31.269Z,4.53
2018-05-23T15:58:58.724Z,4.00
2018-05-23T16:01:26.166Z,3.30
2018-05-23T16:03:53.610Z,3.73
2018-05-23T16:06:21.075Z,3.33
2018-05-23T16:08:48.515Z,3.53
2018-05-23T16:11:15.966Z,3.73
2018-05-23T16:13:43.415Z,3.00
2018-05-23T16:16:10.865Z,3.40
2018-05-23T16:18:39.066Z,3.23
2018-05-23T16:21:06.529Z,3.83
2018-05-23T16:23:33.959Z,3.00
2018-05-23T16:26:01.408Z,3.77
2018-05-23T16:28:30.036Z,3.33
2018-05-23T16:30:57.482Z,3.47
2018-05-23T16:33:24.919Z,3.23
2018-05-23T16:35:52.366Z,2.83
2018-05-23T16:38:20.567Z,2.97
2018-05-23T16:40:48.013Z,3.23
2018-05-23T16:43:15.478Z,2.87
2018-05-23T16:45:42.942Z,3.07
2018-05-23T16:48:10.382Z,3.00
2018-05-23T16:50:38.556Z,3.17
2018-05-23T16:53:06.001Z,3.17
2018-05-23T16:55:34.212Z,2.87
2018-05-23T16:58:01.656Z,3.30
2018-05-23T17:00:29.093Z,3.60
2018-05-23T17:02:57.321Z,3.10
2018-05-23T17:05:24.774Z,3.00
2018-05-23T17:07:52.223Z,3.00
2018-05-23T17:10:19.675Z,3.10
2018-05-23T17:12:47.144Z,3.50
2018-05-23T17:15:14.584Z,3.27
2018-05-23T17:17:42.066Z,3.00
2018-05-23T17:20:09.530Z,3.23
2018-05-23T17:22:36.986Z,2.90
2018-05-23T17:25:04.454Z,3.07
2018-05-23T17:27:32.102Z,2.70
2018-05-23T17:29:59.367Z,2.57
2018-05-23T17:32:26.822Z,2.90
2018-05-23T17:34:54.270Z,2.60
2018-05-23T17:37:21.723Z,2.93
2018-05-23T17:39:49.186Z,3.07
2018-05-23T17:42:16.661Z,2.77
2018-05-23T17:44:44.096Z,2.93
2018-05-23T17:47:11.558Z,2.83
2018-05-23T17:49:39.006Z,2.87
2018-05-23T17:52:06.458Z,2.60
2018-05-23T17:54:33.884Z,2.73
2018-05-23T17:57:01.438Z,3.00
2018-05-23T17:59:28.810Z,2.60
2018-05-23T18:01:56.262Z,2.53
2018-05-23T18:04:23.747Z,2.90
2018-05-23T18:06:51.191Z,2.73
2018-05-23T18:09:18.680Z,2.43
2018-05-23T18:11:46.130Z,3.03
2018-05-23T18:14:13.645Z,2.77
2018-05-23T18:16:41.893Z,2.90
2018-05-23T18:19:09.325Z,2.93
2018-05-23T18:21:36.818Z,3.23
2018-05-23T18:24:04.510Z,3.20
2018-05-23T18:26:31.946Z,2.77
2018-05-23T18:28:59.429Z,3.03
2018-05-23T18:31:26.885Z,2.60
2018-05-23T18:33:54.318Z,2.73
2018-05-23T18:36:24.278Z,2.60
2018-05-23T18:38:52.496Z,2.73
2018-05-23T18:41:19.953Z,2.63
2018-05-23T18:43:47.414Z,2.77
2018-05-23T18:46:14.849Z,2.90
2018-05-23T18:48:42.383Z,2.67
2018-05-23T18:51:10.670Z,3.03
2018-05-23T18:53:38.878Z,2.87
2018-05-23T18:56:06.327Z,3.00
2018-05-23T18:58:33.782Z,2.47
2018-05-23T19:01:01.231Z,8.50
2018-05-23T19:03:28.677Z,16.87
2018-05-23T19:05:56.134Z,6.77
2018-05-23T19:08:23.594Z,2.60
2018-05-23T19:10:51.022Z,2.87
2018-05-23T19:13:18.478Z,3.13
2018-05-23T19:15:45.918Z,10.70
2018-05-23T19:18:14.167Z,16.63
2018-05-23T19:20:41.726Z,3.80
2018-05-23T19:23:09.192Z,4.33
2018-05-23T19:25:36.632Z,3.57
2018-05-23T19:28:04.093Z,3.33
2018-05-23T19:30:31.541Z,3.60
2018-05-23T19:32:58.986Z,4.53
2018-05-23T19:35:26.422Z,3.57
2018-05-23T19:37:53.893Z,3.90
2018-05-23T19:40:21.347Z,3.53
2018-05-23T19:42:48.820Z,4.60
2018-05-23T19:45:16.279Z,3.70
2018-05-23T19:47:44.555Z,4.17
2018-05-23T19:50:11.990Z,3.50
2018-05-23T19:52:39.471Z,3.97
2018-05-23T19:55:06.926Z,3.87
2018-05-23T19:57:34.373Z,3.30
2018-05-23T20:00:01.825Z,3.37
2018-05-23T20:02:29.264Z,3.40
2018-05-23T20:04:57.495Z,3.57
2018-05-23T20:07:24.957Z,8.80
2018-05-23T20:09:52.413Z,4.60
2018-05-23T20:12:19.851Z,3.27
2018-05-23T20:14:47.302Z,2.90
2018-05-23T20:17:14.751Z,3.07
2018-05-23T20:19:42.203Z,3.40
2018-05-23T20:22:09.654Z,3.60
2018-05-23T20:24:37.094Z,3.50
2018-05-23T20:27:05.313Z,3.53
2018-05-23T20:29:32.775Z,3.00
2018-05-23T20:32:00.986Z,2.70
2018-05-23T20:34:28.440Z,3.43
2018-05-23T20:36:55.900Z,3.23
2018-05-23T20:39:23.358Z,3.40
2018-05-23T20:41:50.794Z,2.83
2018-05-23T20:44:18.270Z,2.87
2018-05-23T20:46:45.715Z,3.67
2018-05-23T20:49:13.186Z,3.37
2018-05-23T20:51:40.674Z,2.53
2018-05-23T20:54:08.140Z,3.27
2018-05-23T20:56:35.837Z,3.10
2018-05-23T20:59:03.674Z,2.93
2018-05-23T21:01:31.127Z,3.00
2018-05-23T21:03:58.609Z,3.20
2018-05-23T21:06:26.067Z,3.07
2018-05-23T21:08:53.534Z,3.13
2018-05-23T21:11:22.715Z,3.23
2018-05-23T21:13:50.167Z,3.00
2018-05-23T21:16:18.039Z,3.20
2018-05-23T21:18:45.506Z,3.47
2018-05-23T21:21:12.966Z,2.90
2018-05-23T21:23:40.462Z,2.93
2018-05-23T21:26:07.891Z,3.20
2018-05-23T21:28:35.331Z,3.00
2018-05-23T21:31:02.771Z,3.63
2018-05-23T21:33:30.214Z,3.47
2018-05-23T21:35:58.429Z,3.37
2018-05-23T21:38:25.873Z,3.13
2018-05-23T21:40:53.350Z,3.37
2018-05-23T21:43:20.790Z,3.10
2018-05-23T21:45:48.229Z,3.00
2018-05-23T21:48:15.681Z,3.30
2018-05-23T21:50:43.125Z,2.97
2018-05-23T21:53:11.331Z,3.30
2018-05-23T21:55:38.771Z,3.50
2018-05-23T21:58:06.221Z,3.70
2018-05-23T22:00:34.423Z,3.03
2018-05-23T22:03:01.869Z,3.03
2018-05-23T22:05:29.319Z,3.00
2018-05-23T22:07:56.778Z,3.00
2018-05-23T22:10:24.218Z,2.83
2018-05-23T22:12:52.418Z,3.30
2018-05-23T22:15:19.866Z,3.17
2018-05-23T22:17:47.751Z,3.07
2018-05-23T22:20:15.542Z,3.00
2018-05-23T22:22:42.988Z,3.50
2018-05-23T22:25:10.443Z,2.60
2018-05-23T22:27:38.196Z,3.03
2018-05-23T22:30:05.622Z,3.23
2018-05-23T22:32:33.840Z,3.20
2018-05-23T22:35:01.286Z,2.97
2018-05-23T22:37:28.731Z,2.30
2018-05-23T22:39:56.193Z,2.60
2018-05-23T22:42:23.643Z,2.60
2018-05-23T22:44:51.090Z,2.87
2018-05-23T22:47:19.318Z,2.97
2018-05-23T22:49:46.774Z,2.53
2018-05-23T22:52:14.213Z,2.60
2018-05-23T22:54:41.661Z,2.57
2018-05-23T22:57:09.097Z,2.70
2018-05-23T22:59:36.539Z,2.60
2018-05-23T23:02:04.743Z,2.70
2018-05-23T23:04:32.189Z,2.60
2018-05-23T23:07:00.387Z,2.30
2018-05-23T23:09:28.649Z,2.73
2018-05-23T23:11:56.112Z,3.10
2018-05-23T23:14:23.541Z,2.30
2018-05-23T23:16:51.757Z,2.30
2018-05-23T23:19:20.027Z,2.60
2018-05-23T23:21:47.469Z,2.30
2018-05-23T23:24:14.923Z,2.50
2018-05-23T23:26:43.130Z,2.57
2018-05-23T23:29:10.563Z,2.20
2018-05-23T23:31:38.009Z,2.57
2018-05-23T23:34:06.230Z,2.30
2018-05-23T23:36:33.674Z,2.17
2018-05-23T23:39:01.126Z,2.47
2018-05-23T23:41:28.575Z,2.13
2018-05-23T23:43:56.023Z,2.50
2018-05-23T23:46:24.927Z,2.03
2018-05-23T23:48:52.374Z,2.10
2018-05-23T23:51:19.818Z,2.30
2018-05-23T23:53:48.041Z,2.20
2018-05-23T23:56:15.485Z,2.50
2018-05-23T23:58:44.105Z,2.70
